createdAt,value
2017-08-09T00:00:45.215Z,62.5
2017-08-09T00:01:44.279Z,62.8
2017-08-09T00:02:43.851Z,62.8
2017-08-09T00:03:43.185Z,62.8
2017-08-09T00:04:42.645Z,63
2017-08-09T00:05:42.103Z,63.1
2017-08-09T00:06:41.661Z,63.2
2017-08-09T00:07:40.848Z,63.4
2017-08-09T00:08:40.427Z,63.4
2017-08-09T00:09:39.497Z,63.6
2017-08-09T00:10:39.080Z,63.6
2017-08-09T00:11:38.655Z,63.8
2017-08-09T00:12:38.222Z,63.8
2017-08-09T00:13:37.408Z,64
2017-08-09T00:14:36.487Z,64.2
2017-08-09T00:15:36.082Z,64.1
2017-08-09T00:16:35.544Z,64.1
2017-08-09T00:17:35.124Z,64.1
2017-08-09T00:18:34.309Z,64.3
2017-08-09T00:19:33.635Z,64.3
2017-08-09T00:20:33.213Z,64.4
2017-08-09T00:21:32.689Z,64.4
2017-08-09T00:22:31.748Z,64.6
2017-08-09T00:23:31.451Z,64.6
2017-08-09T00:24:30.665Z,64.7
2017-08-09T00:25:30.353Z,64.8
2017-08-09T00:26:29.533Z,64.9
2017-08-09T00:27:28.998Z,64.9
2017-08-09T00:27:59.524Z,64.9
2017-08-09T00:28:29.894Z,65
2017-08-09T00:29:00.402Z,65
2017-08-09T00:29:30.791Z,65
2017-08-09T00:30:01.178Z,65
2017-08-09T00:30:31.551Z,65.1
2017-08-09T00:31:02.057Z,65.1
2017-08-09T00:31:32.314Z,65.2
2017-08-09T00:32:02.686Z,65.2
2017-08-09T00:33:25.435Z,65.5
2017-08-09T00:34:24.493Z,65.5
2017-08-09T00:35:23.713Z,65.7
2017-08-09T00:36:23.293Z,65.9
2017-08-09T00:37:22.762Z,66.1
2017-08-09T00:39:21.723Z,66.4
2017-08-09T00:40:21.286Z,66.6
2017-08-09T00:41:20.350Z,66.5
2017-08-09T00:42:20.041Z,66.7
2017-08-09T00:42:50.438Z,66.7
2017-08-09T00:43:20.843Z,66.7
2017-08-09T00:44:18.527Z,66.6
2017-08-09T00:45:18.224Z,66.9
2017-08-09T00:46:17.414Z,67
2017-08-09T00:47:16.979Z,67
2017-08-09T00:48:16.165Z,67.1
2017-08-09T00:49:15.885Z,67.1
2017-08-09T00:50:15.071Z,66.8
2017-08-09T00:52:14.160Z,66.8
2017-08-09T00:53:13.351Z,66.9
2017-08-09T00:54:12.913Z,67.1
2017-08-09T00:55:11.979Z,67
2017-08-09T00:56:11.674Z,67.4
2017-08-09T00:57:10.864Z,67.4
2017-08-09T00:58:09.830Z,68
2017-08-09T00:59:09.277Z,68
2017-08-09T01:00:08.866Z,68.4
2017-08-09T01:00:39.363Z,68.4
2017-08-09T01:01:09.875Z,68.4
2017-08-09T01:02:07.838Z,68.7
2017-08-09T01:03:07.024Z,68.5
2017-08-09T01:04:06.718Z,68.7
2017-08-09T01:05:05.952Z,68.7
2017-08-09T01:06:05.667Z,68.7
2017-08-09T01:07:04.860Z,68.9
2017-08-09T01:08:04.047Z,68.8
2017-08-09T01:09:03.625Z,68.8
2017-08-09T01:10:02.807Z,68.8
2017-08-09T01:11:02.145Z,68.9
2017-08-09T01:12:01.838Z,69.1
2017-08-09T01:13:01.401Z,69.3
2017-08-09T01:14:00.348Z,69.1
2017-08-09T01:14:59.916Z,69.1
2017-08-09T01:15:59.610Z,69
2017-08-09T01:16:58.688Z,68.9
2017-08-09T01:17:58.378Z,69
2017-08-09T01:18:57.592Z,69
2017-08-09T01:19:56.544Z,68.9
2017-08-09T01:20:56.122Z,68.8
2017-08-09T01:21:26.371Z,68.8
2017-08-09T01:21:56.754Z,69
2017-08-09T01:22:27.133Z,69
2017-08-09T01:23:54.394Z,68.8
2017-08-09T01:24:53.842Z,68.8
2017-08-09T01:25:53.035Z,68.8
2017-08-09T01:26:52.489Z,68.8
2017-08-09T01:27:52.058Z,68.8
2017-08-09T01:28:51.229Z,69
2017-08-09T01:29:50.799Z,69
2017-08-09T01:30:49.995Z,68.9
2017-08-09T01:31:49.712Z,69.1
2017-08-09T01:33:48.316Z,68.9
2017-08-09T01:34:47.527Z,69
2017-08-09T01:35:47.213Z,69.1
2017-08-09T01:36:46.399Z,69.3
2017-08-09T01:37:45.976Z,69.6
2017-08-09T01:38:45.548Z,69.5
2017-08-09T01:39:44.729Z,69.7
2017-08-09T01:40:43.916Z,69.7
2017-08-09T01:41:43.252Z,69.8
2017-08-09T01:42:42.832Z,69.8
2017-08-09T01:43:42.293Z,69.9
2017-08-09T01:44:41.760Z,69.9
2017-08-09T01:45:40.947Z,69.9
2017-08-09T01:46:40.529Z,69.9
2017-08-09T01:47:39.595Z,70
2017-08-09T01:48:39.287Z,70.1
2017-08-09T01:49:38.355Z,70
2017-08-09T01:50:37.931Z,69.9
2017-08-09T01:51:36.997Z,69.9
2017-08-09T01:52:36.561Z,69.9
2017-08-09T01:53:36.244Z,70
2017-08-09T01:54:35.336Z,70
2017-08-09T01:55:35.034Z,69.9
2017-08-09T01:56:34.239Z,69.9
2017-08-09T01:57:33.332Z,70.2
2017-08-09T01:58:33.019Z,70.1
2017-08-09T01:59:32.593Z,70.3
2017-08-09T02:00:31.665Z,70.5
2017-08-09T02:01:31.253Z,70.4
2017-08-09T02:02:30.451Z,70.4
2017-08-09T02:03:30.021Z,70.4
2017-08-09T02:04:29.376Z,70.3
2017-08-09T02:05:28.457Z,70.3
2017-08-09T02:06:28.158Z,70.3
2017-08-09T02:07:27.340Z,70.4
2017-08-09T02:08:26.913Z,70.4
2017-08-09T02:09:26.105Z,70.5
2017-08-09T02:10:25.670Z,70.5
2017-08-09T02:11:24.734Z,70.8
2017-08-09T02:12:24.176Z,70.6
2017-08-09T02:13:23.795Z,71.2
2017-08-09T02:14:23.251Z,71.1
2017-08-09T02:15:22.433Z,71.1
2017-08-09T02:16:22.117Z,71.1
2017-08-09T02:17:21.187Z,71.4
2017-08-09T02:18:20.140Z,71.1
2017-08-09T02:18:50.775Z,71.1
2017-08-09T02:19:21.148Z,71.1
2017-08-09T02:19:51.654Z,71.1
2017-08-09T02:21:18.520Z,71.2
2017-08-09T02:22:18.213Z,71.2
2017-08-09T02:23:17.151Z,71.3
2017-08-09T02:24:16.843Z,71.1
2017-08-09T02:25:16.035Z,71.5
2017-08-09T02:26:15.618Z,71.5
2017-08-09T02:27:14.823Z,71.6
2017-08-09T02:28:14.526Z,71.7
2017-08-09T02:29:13.721Z,72
2017-08-09T02:30:13.302Z,72.3
2017-08-09T02:30:43.581Z,72.3
2017-08-09T02:31:14.074Z,72.5
2017-08-09T02:31:44.245Z,72.5
2017-08-09T02:33:11.119Z,72.5
2017-08-09T02:34:10.580Z,72.4
2017-08-09T02:35:09.773Z,72.9
2017-08-09T02:36:09.244Z,72.7
2017-08-09T02:37:08.948Z,72.7
2017-08-09T02:38:08.159Z,72.7
2017-08-09T02:39:07.236Z,72.8
2017-08-09T02:40:06.992Z,72.6
2017-08-09T02:41:06.091Z,72.6
2017-08-09T02:42:05.425Z,72.3
2017-08-09T02:43:05.014Z,72.3
2017-08-09T02:44:04.206Z,72.2
2017-08-09T02:45:03.927Z,72.1
2017-08-09T02:46:03.006Z,72.4
2017-08-09T02:47:02.223Z,72.3
2017-08-09T02:48:01.931Z,72.3
2017-08-09T02:48:32.329Z,72.3
2017-08-09T02:49:02.828Z,72.3
2017-08-09T02:49:33.331Z,72.3
2017-08-09T02:50:03.610Z,72.3
2017-08-09T02:50:34.113Z,72.3
2017-08-09T02:51:04.498Z,72.3
2017-08-09T02:51:35.004Z,72.3
2017-08-09T02:52:58.345Z,72.6
2017-08-09T02:53:57.928Z,72.5
2017-08-09T02:54:57.011Z,72.5
2017-08-09T02:55:56.716Z,72.5
2017-08-09T02:56:55.917Z,72.7
2017-08-09T02:57:55.368Z,72.7
2017-08-09T02:58:54.560Z,72.6
2017-08-09T02:59:53.912Z,72.7
2017-08-09T03:00:53.504Z,72.7
2017-08-09T03:01:52.575Z,72.6
2017-08-09T03:03:51.672Z,72.6
2017-08-09T03:04:50.872Z,72.5
2017-08-09T03:05:50.444Z,72.8
2017-08-09T03:06:49.641Z,72.7
2017-08-09T03:07:48.704Z,72.7
2017-08-09T03:08:48.412Z,72.9
2017-08-09T03:09:47.494Z,72.8
2017-08-09T03:10:47.064Z,72.9
2017-08-09T03:11:46.530Z,72.9
2017-08-09T03:12:17.044Z,72.9
2017-08-09T03:13:45.414Z,73.1
2017-08-09T03:14:44.363Z,73.1
2017-08-09T03:15:43.954Z,73.1
2017-08-09T03:16:43.038Z,73.1
2017-08-09T03:17:42.613Z,73.1
2017-08-09T03:18:41.696Z,73.1
2017-08-09T03:19:41.161Z,73.1
2017-08-09T03:20:40.629Z,73.3
2017-08-09T03:21:39.708Z,73.1
2017-08-09T03:22:39.298Z,73.1
2017-08-09T03:23:38.998Z,73.2
2017-08-09T03:24:38.204Z,73.3
2017-08-09T03:26:36.568Z,73.6
2017-08-09T03:27:36.149Z,73.5
2017-08-09T03:28:35.378Z,73.6
2017-08-09T03:29:35.073Z,73.6
2017-08-09T03:30:34.279Z,73.6
2017-08-09T03:31:33.481Z,73.6
2017-08-09T03:33:32.462Z,73.8
2017-08-09T03:34:31.656Z,73.9
2017-08-09T03:35:30.851Z,73.7
2017-08-09T03:36:30.549Z,73.7
2017-08-09T03:37:29.633Z,73.7
2017-08-09T03:38:29.363Z,73.8
2017-08-09T03:39:28.331Z,73.8
2017-08-09T03:40:28.031Z,73.7
2017-08-09T03:41:27.110Z,73.8
2017-08-09T03:42:26.065Z,73.8
2017-08-09T03:42:56.573Z,73.8
2017-08-09T03:43:27.081Z,73.7
2017-08-09T03:44:25.427Z,73.7
2017-08-09T03:45:24.508Z,73.8
2017-08-09T03:46:23.703Z,73.8
2017-08-09T03:47:23.416Z,73.7
2017-08-09T03:48:23.062Z,73.7
2017-08-09T03:49:21.624Z,73.7
2017-08-09T03:50:21.092Z,74.2
2017-08-09T03:51:20.786Z,74.1
2017-08-09T03:52:19.988Z,74
2017-08-09T03:53:19.180Z,73.9
2017-08-09T03:54:18.889Z,74.1
2017-08-09T03:55:17.964Z,73.9
2017-08-09T03:56:17.466Z,74.1
2017-08-09T03:57:16.547Z,74
2017-08-09T03:58:16.007Z,74.3
2017-08-09T03:58:46.510Z,74.3
2017-08-09T03:59:16.890Z,74.2
2017-08-09T04:00:14.585Z,74.1
2017-08-09T04:01:14.278Z,74
2017-08-09T04:02:13.353Z,73.9
2017-08-09T04:03:13.062Z,73.9
2017-08-09T04:04:12.257Z,73.9
2017-08-09T04:05:11.470Z,73.9
2017-08-09T04:06:10.569Z,73.9
2017-08-09T04:07:10.263Z,73.9
2017-08-09T04:08:09.452Z,73.7
2017-08-09T04:09:09.142Z,73.7
2017-08-09T04:10:08.223Z,73.7
2017-08-09T04:11:07.299Z,73.5
2017-08-09T04:12:06.656Z,73.4
2017-08-09T04:13:06.419Z,73.3
2017-08-09T04:14:05.644Z,73.2
2017-08-09T04:15:04.616Z,73.2
2017-08-09T04:16:04.318Z,73.2
2017-08-09T04:17:03.767Z,73
2017-08-09T04:18:02.848Z,72.8
2017-08-09T04:19:02.436Z,72.6
2017-08-09T04:20:02.009Z,72.6
2017-08-09T04:21:01.209Z,72.7
2017-08-09T04:22:00.410Z,72.7
2017-08-09T04:22:59.989Z,72.8
2017-08-09T04:23:59.198Z,72.8
2017-08-09T04:24:58.398Z,72.7
2017-08-09T04:25:57.983Z,72.5
2017-08-09T04:26:57.175Z,72.3
2017-08-09T04:27:56.250Z,72
2017-08-09T04:28:55.941Z,71.8
2017-08-09T04:29:55.019Z,71.7
2017-08-09T04:30:54.385Z,71.7
2017-08-09T04:31:54.075Z,71.6
2017-08-09T04:32:53.286Z,71.7
2017-08-09T04:33:52.361Z,71.8
2017-08-09T04:35:51.094Z,72.1
2017-08-09T04:36:50.561Z,72.1
2017-08-09T04:37:50.131Z,72.1
2017-08-09T04:38:20.402Z,72.1
2017-08-09T04:38:50.909Z,72.1
2017-08-09T04:39:21.407Z,72.1
2017-08-09T04:39:51.903Z,72.1
2017-08-09T04:40:22.182Z,72.1
2017-08-09T04:40:53.087Z,72.1
2017-08-09T04:41:23.493Z,72.1
2017-08-09T04:42:46.848Z,72.2
2017-08-09T04:43:45.919Z,72.2
2017-08-09T04:44:45.153Z,72.2
2017-08-09T04:45:44.621Z,71.9
2017-08-09T04:46:44.202Z,71.9
2017-08-09T04:47:43.390Z,71.8
2017-08-09T04:48:42.557Z,71.8
2017-08-09T04:49:42.252Z,71.7
2017-08-09T04:50:12.644Z,71.7
2017-08-09T04:50:43.150Z,71.7
2017-08-09T04:51:13.668Z,71.7
2017-08-09T04:51:43.947Z,71.6
2017-08-09T04:52:14.223Z,71.6
2017-08-09T04:53:39.591Z,71.7
2017-08-09T04:54:38.677Z,71.6
2017-08-09T04:55:38.381Z,71.8
2017-08-09T04:56:37.596Z,71.7
2017-08-09T04:57:36.677Z,71.7
2017-08-09T04:58:36.135Z,71.7
2017-08-09T04:59:35.592Z,71.7
2017-08-09T05:00:35.175Z,71
2017-08-09T05:01:34.361Z,70.8
2017-08-09T05:02:33.438Z,70.7
2017-08-09T05:03:33.145Z,70.7
2017-08-09T05:04:32.225Z,70.6
2017-08-09T05:05:31.430Z,70.6
2017-08-09T05:06:31.117Z,70.6
2017-08-09T05:07:30.333Z,70.7
2017-08-09T05:08:29.910Z,70.6
2017-08-09T05:09:28.996Z,70.7
2017-08-09T05:10:28.060Z,70.6
2017-08-09T05:11:27.796Z,70.8
2017-08-09T05:12:26.885Z,70.9
2017-08-09T05:13:26.583Z,71
2017-08-09T05:14:25.653Z,71
2017-08-09T05:15:25.231Z,71
2017-08-09T05:16:24.692Z,71
2017-08-09T05:17:23.770Z,71
2017-08-09T05:18:23.376Z,71.1
2017-08-09T05:19:22.335Z,71.1
2017-08-09T05:20:22.042Z,71.1
2017-08-09T05:21:21.236Z,71.3
2017-08-09T05:22:20.422Z,71.7
2017-08-09T05:23:20.008Z,71.6
2017-08-09T05:24:19.207Z,71.8
2017-08-09T05:26:17.809Z,72.1
2017-08-09T05:27:17.512Z,72.3
2017-08-09T05:28:16.588Z,72.2
2017-08-09T05:29:15.683Z,72.1
2017-08-09T05:30:15.266Z,72.1
2017-08-09T05:31:14.340Z,72.1
2017-08-09T05:31:44.985Z,72.1
2017-08-09T05:33:13.376Z,72.1
2017-08-09T05:34:12.447Z,72.1
2017-08-09T05:35:11.907Z,72.3
2017-08-09T05:36:11.487Z,72.2
2017-08-09T05:37:10.680Z,72
2017-08-09T05:38:10.375Z,72
2017-08-09T05:39:09.594Z,71.8
2017-08-09T05:40:08.674Z,72
2017-08-09T05:41:08.004Z,72.1
2017-08-09T05:42:07.696Z,72
2017-08-09T05:43:06.892Z,71.8
2017-08-09T05:44:05.971Z,71.8
2017-08-09T05:46:04.949Z,71.5
2017-08-09T05:47:04.414Z,71.4
2017-08-09T05:47:34.929Z,71.4
2017-08-09T05:48:05.439Z,71.3
2017-08-09T05:49:02.907Z,71.2
2017-08-09T05:50:02.604Z,71.2
2017-08-09T05:52:01.075Z,71.2
2017-08-09T05:53:00.255Z,71.4
2017-08-09T05:53:59.950Z,71.4
2017-08-09T05:54:59.028Z,71.2
2017-08-09T05:55:58.732Z,71.2
2017-08-09T05:56:57.930Z,71.3
2017-08-09T05:57:57.124Z,71.2
2017-08-09T05:58:56.312Z,70.9
2017-08-09T05:59:55.777Z,70.8
2017-08-09T06:00:55.357Z,70.6
2017-08-09T06:01:54.439Z,70.4
2017-08-09T06:02:54.020Z,70.5
2017-08-09T06:03:53.217Z,70.5
2017-08-09T06:04:52.792Z,70.5
2017-08-09T06:05:51.985Z,70.7
2017-08-09T06:06:51.313Z,70.8
2017-08-09T06:07:51.004Z,70.7
2017-08-09T06:08:50.079Z,70.7
2017-08-09T06:09:49.544Z,70.7
2017-08-09T06:10:48.738Z,70.5
2017-08-09T06:11:48.199Z,70.2
2017-08-09T06:12:47.388Z,69.8
2017-08-09T06:13:46.978Z,69.7
2017-08-09T06:14:46.175Z,69.4
2017-08-09T06:15:45.364Z,69.2
2017-08-09T06:16:45.075Z,69.2
2017-08-09T06:17:44.269Z,68.4
2017-08-09T06:18:14.532Z,68.4
2017-08-09T06:18:44.907Z,68.5
2017-08-09T06:19:43.092Z,68.4
2017-08-09T06:20:42.292Z,68
2017-08-09T06:21:41.638Z,67.9
2017-08-09T06:22:41.348Z,67.7
2017-08-09T06:23:40.730Z,67.6
2017-08-09T06:24:39.803Z,67.6
2017-08-09T06:25:38.873Z,67.7
2017-08-09T06:26:38.582Z,67.7
2017-08-09T06:27:38.159Z,67.7
2017-08-09T06:28:37.230Z,67.4
2017-08-09T06:29:36.459Z,66.9
2017-08-09T06:30:36.159Z,66.4
2017-08-09T06:31:35.229Z,66
2017-08-09T06:32:34.930Z,65
2017-08-09T06:33:34.142Z,64.4
2017-08-09T06:34:33.325Z,64
2017-08-09T06:35:32.902Z,63.7
2017-08-09T06:36:32.102Z,62.8
2017-08-09T06:37:31.812Z,62.7
2017-08-09T06:38:31.012Z,62.2
2017-08-09T06:39:01.411Z,62.2
2017-08-09T06:39:31.920Z,61.8
2017-08-09T06:40:02.440Z,61.8
2017-08-09T06:40:32.738Z,62
2017-08-09T06:41:03.138Z,62
2017-08-09T06:42:28.389Z,61.9
2017-08-09T06:43:27.457Z,61.6
2017-08-09T06:44:27.031Z,61.6
2017-08-09T06:45:26.713Z,62
2017-08-09T06:47:25.055Z,62.1
2017-08-09T06:48:24.626Z,62.7
2017-08-09T06:49:24.084Z,62.6
2017-08-09T06:50:23.148Z,62.6
2017-08-09T06:51:22.739Z,62.5
2017-08-09T06:52:22.324Z,62.6
2017-08-09T06:53:21.519Z,62.9
2017-08-09T06:54:20.723Z,62.8
2017-08-09T06:55:20.438Z,62.5
2017-08-09T06:56:19.647Z,63
2017-08-09T06:57:18.846Z,63.1
2017-08-09T06:58:18.546Z,63.1
2017-08-09T06:58:48.925Z,63.1
2017-08-09T07:00:16.974Z,63.3
2017-08-09T07:01:16.550Z,63.3
2017-08-09T07:02:15.742Z,63.3
2017-08-09T07:03:15.453Z,63.1
2017-08-09T07:04:14.547Z,63.1
2017-08-09T07:05:14.139Z,62.9
2017-08-09T07:06:13.607Z,63.1
2017-08-09T07:07:12.684Z,62.9
2017-08-09T07:08:12.151Z,62.7
2017-08-09T07:09:11.349Z,62.1
2017-08-09T07:10:10.802Z,61.3
2017-08-09T07:10:41.685Z,61.3
2017-08-09T07:11:12.086Z,61.4
2017-08-09T07:11:42.466Z,61.4
2017-08-09T07:13:09.124Z,61.1
2017-08-09T07:14:08.190Z,60.3
2017-08-09T07:15:07.771Z,60.2
2017-08-09T07:16:07.341Z,59.1
2017-08-09T07:17:06.561Z,58.6
2017-08-09T07:18:05.758Z,58.1
2017-08-09T07:19:05.348Z,58.1
2017-08-09T07:20:04.542Z,57.7
2017-08-09T07:21:04.131Z,57.5
2017-08-09T07:23:03.126Z,56.5
2017-08-09T07:24:02.107Z,55.8
2017-08-09T07:25:01.818Z,55.8
2017-08-09T07:26:00.771Z,55.5
2017-08-09T07:27:00.332Z,55
2017-08-09T07:27:59.552Z,54.4
2017-08-09T07:28:59.012Z,54
2017-08-09T07:29:58.708Z,53.5
2017-08-09T07:30:57.799Z,52.5
2017-08-09T07:31:57.498Z,52.5
2017-08-09T07:32:56.585Z,52.9
2017-08-09T07:33:56.289Z,51.8
2017-08-09T07:34:55.471Z,51.4
2017-08-09T07:35:54.550Z,51.4
2017-08-09T07:36:54.119Z,51.4
2017-08-09T07:37:53.817Z,51.3
2017-08-09T07:38:53.007Z,50.7
2017-08-09T07:39:52.597Z,50.7
2017-08-09T07:40:51.682Z,49.9
2017-08-09T07:41:51.400Z,49.6
2017-08-09T07:42:50.612Z,48.7
2017-08-09T07:43:50.211Z,48.7
2017-08-09T07:44:49.285Z,48.9
2017-08-09T07:45:48.883Z,48.4
2017-08-09T07:46:48.077Z,48.3
2017-08-09T07:47:47.774Z,48.6
2017-08-09T07:48:46.859Z,48.7
2017-08-09T07:49:46.572Z,48.7
2017-08-09T07:50:45.650Z,48.7
2017-08-09T07:51:45.124Z,47.6
2017-08-09T07:52:44.325Z,47.6
2017-08-09T07:53:44.015Z,47.6
2017-08-09T07:54:43.103Z,47.3
2017-08-09T07:55:42.688Z,47.7
2017-08-09T07:56:41.880Z,48.3
2017-08-09T07:57:41.465Z,47
2017-08-09T07:58:40.930Z,47
2017-08-09T07:59:39.903Z,47.4
2017-08-09T08:00:39.481Z,47.7
2017-08-09T08:01:39.178Z,48.3
2017-08-09T08:02:38.131Z,48.7
2017-08-09T08:03:37.704Z,48.3
2017-08-09T08:04:37.401Z,48.4
2017-08-09T08:05:36.475Z,48.3
2017-08-09T08:06:36.171Z,48.4
2017-08-09T08:07:35.373Z,48.5
2017-08-09T08:08:05.643Z,48.5
2017-08-09T08:08:35.907Z,48.9
2017-08-09T08:09:06.285Z,48.9
2017-08-09T08:10:33.319Z,48.6
2017-08-09T08:11:32.890Z,48
2017-08-09T08:12:32.592Z,47.7
2017-08-09T08:13:31.679Z,47.4
2017-08-09T08:14:31.384Z,47.1
2017-08-09T08:15:30.581Z,46.9
2017-08-09T08:16:29.933Z,46.8
2017-08-09T08:17:29.141Z,46.9
2017-08-09T08:18:28.607Z,46.6
2017-08-09T08:18:59.101Z,46.6
2017-08-09T08:19:29.604Z,46
2017-08-09T08:20:00.000Z,46
2017-08-09T08:20:30.502Z,45.7
2017-08-09T08:21:00.878Z,45.7
2017-08-09T08:21:31.258Z,44.8
2017-08-09T08:22:26.430Z,45
2017-08-09T08:23:25.164Z,45
2017-08-09T08:24:25.253Z,44.5
2017-08-09T08:25:24.332Z,43.6
2017-08-09T08:26:24.032Z,43.9
2017-08-09T08:27:23.240Z,43.9
2017-08-09T08:28:22.820Z,43.6
2017-08-09T08:29:22.022Z,43.4
2017-08-09T08:30:21.732Z,43.7
2017-08-09T08:31:20.697Z,44
2017-08-09T08:32:20.401Z,44.5
2017-08-09T08:33:19.580Z,44.9
2017-08-09T08:34:19.157Z,44.3
2017-08-09T08:35:18.339Z,44.6
2017-08-09T08:36:18.047Z,44.7
2017-08-09T08:37:17.129Z,44.5
2017-08-09T08:37:47.517Z,44.5
2017-08-09T08:38:18.020Z,44.5
2017-08-09T08:39:16.207Z,43.4
2017-08-09T08:40:15.272Z,43.1
2017-08-09T08:41:14.853Z,42.9
2017-08-09T08:43:13.941Z,41.9
2017-08-09T08:44:13.129Z,41.9
2017-08-09T08:45:12.325Z,41.5
2017-08-09T08:46:11.785Z,40.9
2017-08-09T08:47:11.365Z,40.8
2017-08-09T08:48:10.567Z,39.7
2017-08-09T08:49:10.150Z,40.2
2017-08-09T08:50:09.605Z,40.4
2017-08-09T08:51:08.795Z,39.8
2017-08-09T08:52:08.494Z,39.5
2017-08-09T08:53:07.701Z,40
2017-08-09T08:54:07.280Z,40.1
2017-08-09T08:55:06.406Z,39.9
2017-08-09T08:56:05.994Z,40.6
2017-08-09T08:57:05.570Z,40.7
2017-08-09T08:58:04.527Z,40.1
2017-08-09T08:58:35.028Z,40.1
2017-08-09T08:59:05.410Z,40.3
2017-08-09T08:59:35.795Z,40.3
2017-08-09T09:00:06.180Z,40.4
2017-08-09T09:00:36.562Z,40.4
2017-08-09T09:02:02.236Z,39.9
2017-08-09T09:03:01.958Z,40.2
2017-08-09T09:04:01.150Z,40
2017-08-09T09:05:00.733Z,39.8
2017-08-09T09:05:59.717Z,39.4
2017-08-09T09:06:59.314Z,39.3
2017-08-09T09:07:58.782Z,38.4
2017-08-09T09:08:58.488Z,38.4
2017-08-09T09:09:57.682Z,38.1
2017-08-09T09:10:56.766Z,38.3
2017-08-09T09:11:56.483Z,38.5
2017-08-09T09:12:26.870Z,38.5
2017-08-09T09:12:57.138Z,37.2
2017-08-09T09:13:55.210Z,37.2
2017-08-09T09:14:54.902Z,37
2017-08-09T09:15:54.095Z,37.4
2017-08-09T09:16:53.789Z,37.7
2017-08-09T09:17:53.550Z,37.7
2017-08-09T09:18:52.128Z,37.4
2017-08-09T09:19:51.728Z,37.1
2017-08-09T09:20:51.428Z,37.6
2017-08-09T09:21:50.508Z,37.8
2017-08-09T09:22:49.978Z,38.6
2017-08-09T09:23:49.574Z,39.1
2017-08-09T09:24:48.781Z,39.5
2017-08-09T09:25:48.247Z,39.9
2017-08-09T09:26:47.935Z,40
2017-08-09T09:27:47.034Z,40.1
2017-08-09T09:28:46.722Z,40.2
2017-08-09T09:29:45.917Z,39.9
2017-08-09T09:30:45.614Z,39.9
2017-08-09T09:31:16.113Z,39.9
2017-08-09T09:31:46.505Z,40.5
2017-08-09T09:32:17.002Z,40.5
2017-08-09T09:33:43.751Z,40.6
2017-08-09T09:34:42.839Z,40.6
2017-08-09T09:35:42.311Z,40.3
2017-08-09T09:36:42.016Z,39.6
2017-08-09T09:37:41.103Z,40.1
2017-08-09T09:38:40.685Z,40
2017-08-09T09:39:40.272Z,40
2017-08-09T09:40:39.463Z,40.1
2017-08-09T09:41:39.055Z,39.5
2017-08-09T09:42:09.570Z,39.5
2017-08-09T09:43:37.971Z,38.5
2017-08-09T09:44:36.937Z,38.9
2017-08-09T09:45:36.511Z,39.8
2017-08-09T09:46:36.111Z,38.8
2017-08-09T09:47:35.685Z,38.9
2017-08-09T09:48:34.769Z,39
2017-08-09T09:49:34.463Z,39.6
2017-08-09T09:50:33.661Z,39.6
2017-08-09T09:51:33.359Z,38.8
2017-08-09T09:53:31.954Z,39.8
2017-08-09T09:54:31.348Z,39.2
2017-08-09T09:55:31.055Z,38.3
2017-08-09T09:56:30.260Z,38
2017-08-09T09:57:29.720Z,37.7
2017-08-09T09:58:29.294Z,37.8
2017-08-09T09:58:59.564Z,37.8
2017-08-09T09:59:29.949Z,38
2017-08-09T10:00:28.033Z,38.8
2017-08-09T10:01:27.225Z,38.2
2017-08-09T10:02:26.925Z,38.2
2017-08-09T10:03:27.064Z,38.3
2017-08-09T10:04:25.509Z,38.3
2017-08-09T10:05:25.204Z,38
2017-08-09T10:06:24.400Z,38
2017-08-09T10:07:23.753Z,38
2017-08-09T10:08:23.332Z,37.7
2017-08-09T10:10:22.291Z,38.8
2017-08-09T10:11:21.477Z,39.1
2017-08-09T10:12:21.071Z,39.1
2017-08-09T10:13:20.759Z,39.9
2017-08-09T10:14:19.705Z,39.8
2017-08-09T10:15:19.294Z,40.1
2017-08-09T10:16:18.997Z,40.1
2017-08-09T10:17:18.079Z,38.7
2017-08-09T10:18:17.785Z,39.2
2017-08-09T10:19:16.971Z,39.6
2017-08-09T10:20:16.665Z,39.8
2017-08-09T10:21:15.741Z,39.5
2017-08-09T10:22:15.438Z,39.5
2017-08-09T10:23:14.788Z,39.5
2017-08-09T10:24:14.243Z,39.9
2017-08-09T10:25:13.704Z,38
2017-08-09T10:26:13.274Z,38.1
2017-08-09T10:27:12.477Z,38.7
2017-08-09T10:28:11.922Z,40.5
2017-08-09T10:29:11.514Z,39.5
2017-08-09T10:30:10.591Z,39.3
2017-08-09T10:31:10.183Z,38.4
2017-08-09T10:32:09.425Z,38.1
2017-08-09T10:33:09.111Z,38.2
2017-08-09T10:34:08.810Z,38.4
2017-08-09T10:35:08.021Z,38.5
2017-08-09T10:36:07.587Z,38.4
2017-08-09T10:37:06.769Z,38.5
2017-08-09T10:38:06.340Z,38.7
2017-08-09T10:38:36.724Z,38.7
2017-08-09T10:39:07.008Z,39
2017-08-09T10:39:37.398Z,39
2017-08-09T10:41:04.654Z,39.4
2017-08-09T10:42:04.357Z,39.2
2017-08-09T10:43:03.321Z,38.7
2017-08-09T10:44:02.923Z,38.6
2017-08-09T10:45:02.630Z,38.2
2017-08-09T10:46:01.704Z,38.5
2017-08-09T10:47:01.409Z,38.7
2017-08-09T10:48:00.503Z,38.7
2017-08-09T10:49:00.093Z,39.7
2017-08-09T10:49:59.675Z,38
2017-08-09T10:50:30.182Z,38
2017-08-09T10:51:00.592Z,37.9
2017-08-09T10:51:30.992Z,37.9
2017-08-09T10:52:01.494Z,37.5
2017-08-09T10:52:31.868Z,37.5
2017-08-09T10:53:02.378Z,37.3
2017-08-09T10:53:32.778Z,37.3
2017-08-09T10:54:56.889Z,37.2
2017-08-09T10:55:56.470Z,37.9
2017-08-09T10:57:55.345Z,37.9
2017-08-09T10:58:54.539Z,37.8
2017-08-09T10:59:53.851Z,36.9
2017-08-09T11:00:53.564Z,37.5
2017-08-09T11:01:53.256Z,37.9
2017-08-09T11:02:52.335Z,36.8
2017-08-09T11:03:51.679Z,37.3
2017-08-09T11:04:51.389Z,37
2017-08-09T11:05:50.975Z,36.8
2017-08-09T11:06:50.563Z,36.9
2017-08-09T11:07:49.630Z,37.4
2017-08-09T11:08:48.859Z,36.8
2017-08-09T11:09:48.438Z,37.4
2017-08-09T11:10:18.946Z,37.4
2017-08-09T11:10:49.450Z,37.8
2017-08-09T11:11:19.956Z,37.8
2017-08-09T11:12:47.227Z,36.8
2017-08-09T11:13:46.420Z,36.6
2017-08-09T11:14:46.125Z,36.6
2017-08-09T11:15:45.696Z,36.6
2017-08-09T11:16:45.153Z,38.1
2017-08-09T11:17:44.368Z,37.4
2017-08-09T11:18:43.957Z,37.3
2017-08-09T11:19:43.545Z,38
2017-08-09T11:20:42.743Z,38.7
2017-08-09T11:21:42.203Z,38.5
2017-08-09T11:22:41.909Z,37.9
2017-08-09T11:23:41.390Z,37.5
2017-08-09T11:24:11.791Z,37.5
2017-08-09T11:24:42.563Z,38.1
2017-08-09T11:25:40.122Z,37.8
2017-08-09T11:27:39.223Z,37.5
2017-08-09T11:28:38.420Z,38.1
2017-08-09T11:29:37.995Z,37.4
2017-08-09T11:30:37.579Z,37.5
2017-08-09T11:31:37.047Z,37.5
2017-08-09T11:32:36.135Z,37.5
2017-08-09T11:33:35.832Z,37.4
2017-08-09T11:34:35.547Z,36.6
2017-08-09T11:35:34.619Z,36.3
2017-08-09T11:36:34.325Z,36.3
2017-08-09T11:37:34.014Z,36.3
2017-08-09T11:38:33.211Z,36.7
2017-08-09T11:39:32.552Z,36.5
2017-08-09T11:40:32.395Z,37.8
2017-08-09T11:41:31.997Z,37.4
2017-08-09T11:42:30.943Z,36.7
2017-08-09T11:43:30.635Z,37.4
2017-08-09T11:44:30.092Z,36.3
2017-08-09T11:45:29.553Z,35.6
2017-08-09T11:46:28.923Z,35.8
2017-08-09T11:47:28.390Z,36.5
2017-08-09T11:48:27.848Z,35.7
2017-08-09T11:48:58.229Z,35.7
2017-08-09T11:50:26.991Z,36.1
2017-08-09T11:51:26.691Z,36.9
2017-08-09T11:52:26.263Z,37.3
2017-08-09T11:53:25.744Z,36.9
2017-08-09T11:54:24.825Z,37.1
2017-08-09T11:55:24.278Z,36.8
2017-08-09T11:56:23.981Z,36.4
2017-08-09T11:57:23.565Z,36.2
2017-08-09T11:58:23.149Z,37.1
2017-08-09T11:59:22.241Z,36.5
2017-08-09T12:00:21.936Z,36.5
2017-08-09T12:01:21.574Z,36.8
2017-08-09T12:02:21.166Z,37.2
2017-08-09T12:03:20.247Z,37
2017-08-09T12:04:19.960Z,37.6
2017-08-09T12:05:19.662Z,37.1
2017-08-09T12:06:18.748Z,37.4
2017-08-09T12:07:18.442Z,37.4
2017-08-09T12:08:18.136Z,37.4
2017-08-09T12:09:17.334Z,36.9
2017-08-09T12:10:16.919Z,36.2
2017-08-09T12:11:16.621Z,35.8
2017-08-09T12:12:15.822Z,34.8
2017-08-09T12:13:15.399Z,34.8
2017-08-09T12:15:14.485Z,35.5
2017-08-09T12:16:14.069Z,34.9
2017-08-09T12:17:13.652Z,35
2017-08-09T12:18:12.873Z,35
2017-08-09T12:19:12.580Z,35.2
2017-08-09T12:19:42.901Z,35.2
2017-08-09T12:20:13.315Z,35.6
2017-08-09T12:20:43.721Z,35.6
2017-08-09T12:21:14.144Z,36.7
2017-08-09T12:21:44.544Z,36.7
2017-08-09T12:22:14.936Z,35.7
2017-08-09T12:22:45.329Z,35.7
2017-08-09T12:24:09.958Z,35.5
2017-08-09T12:25:09.428Z,35.5
2017-08-09T12:26:09.015Z,35.5
2017-08-09T12:27:08.478Z,36.2
2017-08-09T12:28:07.939Z,36.2
2017-08-09T12:29:07.640Z,36.1
2017-08-09T12:30:07.335Z,35.6
2017-08-09T12:31:07.044Z,35.8
2017-08-09T12:32:06.244Z,35.8
2017-08-09T12:33:05.712Z,35.3
2017-08-09T12:34:05.172Z,35.1
2017-08-09T12:35:04.886Z,35.4
2017-08-09T12:37:03.866Z,35.3
2017-08-09T12:38:03.322Z,35.5
2017-08-09T12:39:02.907Z,35.7
2017-08-09T12:40:02.500Z,35.9
2017-08-09T12:41:02.210Z,35.6
2017-08-09T12:42:01.802Z,35.3
2017-08-09T12:43:01.387Z,35.3
2017-08-09T12:44:00.875Z,35.3
2017-08-09T12:45:00.460Z,34.8
2017-08-09T12:46:00.033Z,34
2017-08-09T12:46:59.112Z,34.8
2017-08-09T12:47:58.808Z,35.7
2017-08-09T12:48:58.505Z,35.2
2017-08-09T12:49:58.201Z,35
2017-08-09T12:50:57.321Z,34.9
2017-08-09T12:51:56.899Z,34.8